<?xml version="1.0" encoding="UTF-8" standalone="no" ?>
<gpx xmlns="http://www.topografix.com/GPX/1/1" xmlns:xsi="http://www.w3.org/2001/XMLSchema-instance" xsi:schemaLocation="http://www.topografix.com/GPX/1/1 http://www.topografix.com/GPX/1/1/gpx.xsd" version="1.1" creator="VisuGPX - https://www.visugpx.com">
  <metadata>
    <name>Allègres les Fumades - Navacelles</name>
    <desc><![CDATA[Boucle dans la plaine des Fumades]]></desc>
  </metadata>
  <trk>
    <name><![CDATA[Fumades_2017-03-19 09:45]]></name>
    <desc><![CDATA[<p>Heure de départ: 03/19/2017 09:45<br/>Heure d'arrivée: 03/19/2017 14:07<br/>Distance: 10,9 km (04:22)<br/>Temps déplacement: 02:25<br/>Vitesse moyenne: 2,49 km/h<br/>Vitesse moyenne mouv.: 4,48 km/h<br/>Vitesse Max.: 9,71 km/h<br/>Altitude minimale: 118 m<br/>Altitude maximale: 205 m<br/>Vitesse de montée: 188,7 m/h<br/>Vitesse de descente: -165,3 m/h<br/>Gain d'altitude: 377 m<br/>Perte d'altitude: -373 m<br/>Temps de montée: 01:59<br/>Temps de descente: 02:15<br/></p><hr align="center" width="480" style="height: 2px; width: 517px"/>]]></desc>
    <trkseg>
      <trkpt lat="44.18467" lon="4.23321">
        <ele>126.95</ele>
        <time>2017-03-19T08:45:10Z</time>
      </trkpt>
      <trkpt lat="44.1847" lon="4.23296">
        <ele>136.32</ele>
        <time>2017-03-19T08:45:47Z</time>
      </trkpt>
      <trkpt lat="44.18483" lon="4.23277">
        <ele>139.09</ele>
        <time>2017-03-19T08:46:14Z</time>
      </trkpt>
      <trkpt lat="44.18488" lon="4.23253">
        <ele>139.52</ele>
        <time>2017-03-19T08:46:32Z</time>
      </trkpt>
      <trkpt lat="44.18502" lon="4.23236">
        <ele>133.99</ele>
        <time>2017-03-19T08:46:52Z</time>
      </trkpt>
      <trkpt lat="44.18507" lon="4.23212">
        <ele>133.62</ele>
        <time>2017-03-19T08:47:08Z</time>
      </trkpt>
      <trkpt lat="44.18505" lon="4.23186">
        <ele>130.36</ele>
        <time>2017-03-19T08:47:16Z</time>
      </trkpt>
      <trkpt lat="44.18514" lon="4.23162">
        <ele>132.01</ele>
        <time>2017-03-19T08:48:16Z</time>
      </trkpt>
      <trkpt lat="44.18522" lon="4.2314">
        <ele>126.82</ele>
        <time>2017-03-19T08:48:27Z</time>
      </trkpt>
      <trkpt lat="44.18521" lon="4.23114">
        <ele>136.43</ele>
        <time>2017-03-19T08:49:29Z</time>
      </trkpt>
      <trkpt lat="44.18521" lon="4.23088">
        <ele>137.21</ele>
        <time>2017-03-19T08:49:44Z</time>
      </trkpt>
      <trkpt lat="44.18527" lon="4.23064">
        <ele>136.75</ele>
        <time>2017-03-19T08:49:59Z</time>
      </trkpt>
      <trkpt lat="44.18531" lon="4.2304">
        <ele>134.66</ele>
        <time>2017-03-19T08:50:09Z</time>
      </trkpt>
      <trkpt lat="44.18536" lon="4.23015">
        <ele>130.86</ele>
        <time>2017-03-19T08:50:24Z</time>
      </trkpt>
      <trkpt lat="44.18536" lon="4.2299">
        <ele>129.72</ele>
        <time>2017-03-19T08:50:40Z</time>
      </trkpt>
      <trkpt lat="44.1854" lon="4.22965">
        <ele>134</ele>
        <time>2017-03-19T08:50:57Z</time>
      </trkpt>
      <trkpt lat="44.18543" lon="4.2294">
        <ele>131.42</ele>
        <time>2017-03-19T08:52:45Z</time>
      </trkpt>
      <trkpt lat="44.1855" lon="4.22917">
        <ele>130.72</ele>
        <time>2017-03-19T08:52:59Z</time>
      </trkpt>
      <trkpt lat="44.18561" lon="4.22895">
        <ele>132.35</ele>
        <time>2017-03-19T08:53:15Z</time>
      </trkpt>
      <trkpt lat="44.18576" lon="4.22877">
        <ele>128.42</ele>
        <time>2017-03-19T08:53:32Z</time>
      </trkpt>
      <trkpt lat="44.18593" lon="4.2289">
        <ele>135.02</ele>
        <time>2017-03-19T08:54:01Z</time>
      </trkpt>
      <trkpt lat="44.18605" lon="4.22909">
        <ele>129.64</ele>
        <time>2017-03-19T08:54:24Z</time>
      </trkpt>
      <trkpt lat="44.18616" lon="4.2293">
        <ele>134.9</ele>
        <time>2017-03-19T08:54:45Z</time>
      </trkpt>
      <trkpt lat="44.1863" lon="4.22949">
        <ele>133.61</ele>
        <time>2017-03-19T08:55:02Z</time>
      </trkpt>
      <trkpt lat="44.18635" lon="4.22974">
        <ele>142.63</ele>
        <time>2017-03-19T08:55:44Z</time>
      </trkpt>
      <trkpt lat="44.18619" lon="4.22989">
        <ele>138.14</ele>
        <time>2017-03-19T08:56:01Z</time>
      </trkpt>
      <trkpt lat="44.18608" lon="4.2301">
        <ele>135.6</ele>
        <time>2017-03-19T08:56:18Z</time>
      </trkpt>
      <trkpt lat="44.1862" lon="4.2303">
        <ele>134.57</ele>
        <time>2017-03-19T08:56:34Z</time>
      </trkpt>
      <trkpt lat="44.18633" lon="4.23049">
        <ele>135.32</ele>
        <time>2017-03-19T08:56:47Z</time>
      </trkpt>
      <trkpt lat="44.18643" lon="4.23071">
        <ele>134.22</ele>
        <time>2017-03-19T08:57:10Z</time>
      </trkpt>
      <trkpt lat="44.18657" lon="4.23087">
        <ele>131.64</ele>
        <time>2017-03-19T08:57:23Z</time>
      </trkpt>
      <trkpt lat="44.18666" lon="4.23108">
        <ele>130.38</ele>
        <time>2017-03-19T08:57:40Z</time>
      </trkpt>
      <trkpt lat="44.18676" lon="4.23131">
        <ele>126.55</ele>
        <time>2017-03-19T08:57:55Z</time>
      </trkpt>
      <trkpt lat="44.1869" lon="4.23147">
        <ele>130.97</ele>
        <time>2017-03-19T08:58:09Z</time>
      </trkpt>
      <trkpt lat="44.18704" lon="4.23163">
        <ele>127.51</ele>
        <time>2017-03-19T08:58:27Z</time>
      </trkpt>
      <trkpt lat="44.18723" lon="4.23172">
        <ele>131.25</ele>
        <time>2017-03-19T08:58:44Z</time>
      </trkpt>
      <trkpt lat="44.18742" lon="4.23171">
        <ele>128.46</ele>
        <time>2017-03-19T09:00:50Z</time>
      </trkpt>
      <trkpt lat="44.1876" lon="4.23177">
        <ele>131.5</ele>
        <time>2017-03-19T09:01:06Z</time>
      </trkpt>
      <trkpt lat="44.18777" lon="4.23188">
        <ele>135.33</ele>
        <time>2017-03-19T09:01:32Z</time>
      </trkpt>
      <trkpt lat="44.18796" lon="4.23196">
        <ele>137.32</ele>
        <time>2017-03-19T09:01:45Z</time>
      </trkpt>
      <trkpt lat="44.18812" lon="4.23207">
        <ele>138.53</ele>
        <time>2017-03-19T09:02:03Z</time>
      </trkpt>
      <trkpt lat="44.1883" lon="4.23216">
        <ele>133.33</ele>
        <time>2017-03-19T09:02:35Z</time>
      </trkpt>
      <trkpt lat="44.1882" lon="4.23194">
        <ele>132.03</ele>
        <time>2017-03-19T09:07:32Z</time>
      </trkpt>
      <trkpt lat="44.18819" lon="4.23168">
        <ele>134.6</ele>
        <time>2017-03-19T09:07:50Z</time>
      </trkpt>
      <trkpt lat="44.18813" lon="4.23143">
        <ele>134.36</ele>
        <time>2017-03-19T09:08:07Z</time>
      </trkpt>
      <trkpt lat="44.18815" lon="4.23118">
        <ele>133.34</ele>
        <time>2017-03-19T09:08:20Z</time>
      </trkpt>
      <trkpt lat="44.18815" lon="4.23091">
        <ele>140.32</ele>
        <time>2017-03-19T09:08:35Z</time>
      </trkpt>
      <trkpt lat="44.18822" lon="4.23068">
        <ele>135.95</ele>
        <time>2017-03-19T09:08:56Z</time>
      </trkpt>
      <trkpt lat="44.1882" lon="4.23041">
        <ele>137.01</ele>
        <time>2017-03-19T09:09:14Z</time>
      </trkpt>
      <trkpt lat="44.18818" lon="4.23016">
        <ele>140.83</ele>
        <time>2017-03-19T09:09:30Z</time>
      </trkpt>
      <trkpt lat="44.18815" lon="4.22988">
        <ele>143.52</ele>
        <time>2017-03-19T09:10:03Z</time>
      </trkpt>
      <trkpt lat="44.18818" lon="4.22963">
        <ele>140.26</ele>
        <time>2017-03-19T09:11:06Z</time>
      </trkpt>
      <trkpt lat="44.18822" lon="4.22936">
        <ele>144.41</ele>
        <time>2017-03-19T09:11:18Z</time>
      </trkpt>
      <trkpt lat="44.18824" lon="4.2291">
        <ele>149.42</ele>
        <time>2017-03-19T09:11:33Z</time>
      </trkpt>
      <trkpt lat="44.18823" lon="4.22884">
        <ele>149.65</ele>
        <time>2017-03-19T09:11:50Z</time>
      </trkpt>
      <trkpt lat="44.18821" lon="4.22859">
        <ele>146.63</ele>
        <time>2017-03-19T09:12:08Z</time>
      </trkpt>
      <trkpt lat="44.18813" lon="4.22836">
        <ele>148.83</ele>
        <time>2017-03-19T09:12:24Z</time>
      </trkpt>
      <trkpt lat="44.18806" lon="4.2281">
        <ele>151.24</ele>
        <time>2017-03-19T09:12:38Z</time>
      </trkpt>
      <trkpt lat="44.18803" lon="4.22785">
        <ele>154.32</ele>
        <time>2017-03-19T09:13:01Z</time>
      </trkpt>
      <trkpt lat="44.18799" lon="4.2276">
        <ele>154.03</ele>
        <time>2017-03-19T09:13:17Z</time>
      </trkpt>
      <trkpt lat="44.18791" lon="4.22736">
        <ele>154.12</ele>
        <time>2017-03-19T09:13:31Z</time>
      </trkpt>
      <trkpt lat="44.18784" lon="4.22712">
        <ele>159.32</ele>
        <time>2017-03-19T09:13:50Z</time>
      </trkpt>
      <trkpt lat="44.18773" lon="4.22691">
        <ele>161.39</ele>
        <time>2017-03-19T09:14:11Z</time>
      </trkpt>
      <trkpt lat="44.18771" lon="4.22665">
        <ele>163.62</ele>
        <time>2017-03-19T09:14:35Z</time>
      </trkpt>
      <trkpt lat="44.18769" lon="4.2264">
        <ele>159.73</ele>
        <time>2017-03-19T09:14:56Z</time>
      </trkpt>
      <trkpt lat="44.1876" lon="4.22617">
        <ele>158.44</ele>
        <time>2017-03-19T09:15:11Z</time>
      </trkpt>
      <trkpt lat="44.18752" lon="4.22594">
        <ele>161.57</ele>
        <time>2017-03-19T09:15:24Z</time>
      </trkpt>
      <trkpt lat="44.18746" lon="4.2257">
        <ele>156.95</ele>
        <time>2017-03-19T09:16:16Z</time>
      </trkpt>
      <trkpt lat="44.18743" lon="4.22544">
        <ele>167.75</ele>
        <time>2017-03-19T09:16:30Z</time>
      </trkpt>
      <trkpt lat="44.18724" lon="4.22539">
        <ele>167.33</ele>
        <time>2017-03-19T09:19:07Z</time>
      </trkpt>
      <trkpt lat="44.18708" lon="4.22526">
        <ele>161.65</ele>
        <time>2017-03-19T09:19:30Z</time>
      </trkpt>
      <trkpt lat="44.18691" lon="4.22517">
        <ele>162.54</ele>
        <time>2017-03-19T09:19:53Z</time>
      </trkpt>
      <trkpt lat="44.18674" lon="4.22505">
        <ele>163.52</ele>
        <time>2017-03-19T09:20:06Z</time>
      </trkpt>
      <trkpt lat="44.18658" lon="4.22492">
        <ele>161.52</ele>
        <time>2017-03-19T09:20:15Z</time>
      </trkpt>
      <trkpt lat="44.18642" lon="4.22478">
        <ele>147.31</ele>
        <time>2017-03-19T09:20:39Z</time>
      </trkpt>
      <trkpt lat="44.18626" lon="4.22467">
        <ele>154.82</ele>
        <time>2017-03-19T09:20:51Z</time>
      </trkpt>
      <trkpt lat="44.18608" lon="4.22463">
        <ele>152.82</ele>
        <time>2017-03-19T09:21:14Z</time>
      </trkpt>
      <trkpt lat="44.18588" lon="4.22462">
        <ele>159.02</ele>
        <time>2017-03-19T09:21:24Z</time>
      </trkpt>
      <trkpt lat="44.18573" lon="4.22444">
        <ele>167.5</ele>
        <time>2017-03-19T09:21:39Z</time>
      </trkpt>
      <trkpt lat="44.18562" lon="4.22423">
        <ele>165.65</ele>
        <time>2017-03-19T09:21:51Z</time>
      </trkpt>
      <trkpt lat="44.18546" lon="4.22409">
        <ele>169.62</ele>
        <time>2017-03-19T09:22:16Z</time>
      </trkpt>
      <trkpt lat="44.18528" lon="4.22399">
        <ele>169.63</ele>
        <time>2017-03-19T09:22:40Z</time>
      </trkpt>
      <trkpt lat="44.18515" lon="4.22382">
        <ele>171.92</ele>
        <time>2017-03-19T09:22:55Z</time>
      </trkpt>
      <trkpt lat="44.18502" lon="4.22361">
        <ele>176.21</ele>
        <time>2017-03-19T09:23:46Z</time>
      </trkpt>
      <trkpt lat="44.18491" lon="4.22341">
        <ele>172.24</ele>
        <time>2017-03-19T09:24:02Z</time>
      </trkpt>
      <trkpt lat="44.18488" lon="4.22316">
        <ele>173.63</ele>
        <time>2017-03-19T09:24:21Z</time>
      </trkpt>
      <trkpt lat="44.18473" lon="4.22299">
        <ele>165.11</ele>
        <time>2017-03-19T09:24:38Z</time>
      </trkpt>
      <trkpt lat="44.18465" lon="4.22276">
        <ele>165.69</ele>
        <time>2017-03-19T09:24:55Z</time>
      </trkpt>
      <trkpt lat="44.18457" lon="4.2225">
        <ele>166.52</ele>
        <time>2017-03-19T09:25:06Z</time>
      </trkpt>
      <trkpt lat="44.18443" lon="4.22232">
        <ele>170</ele>
        <time>2017-03-19T09:25:18Z</time>
      </trkpt>
      <trkpt lat="44.18427" lon="4.22215">
        <ele>174.48</ele>
        <time>2017-03-19T09:25:31Z</time>
      </trkpt>
      <trkpt lat="44.18419" lon="4.22191">
        <ele>166.98</ele>
        <time>2017-03-19T09:25:54Z</time>
      </trkpt>
      <trkpt lat="44.18403" lon="4.22178">
        <ele>173.27</ele>
        <time>2017-03-19T09:26:34Z</time>
      </trkpt>
      <trkpt lat="44.18387" lon="4.22165">
        <ele>172.64</ele>
        <time>2017-03-19T09:26:56Z</time>
      </trkpt>
      <trkpt lat="44.18369" lon="4.22157">
        <ele>173.6</ele>
        <time>2017-03-19T09:27:11Z</time>
      </trkpt>
      <trkpt lat="44.18351" lon="4.22151">
        <ele>173.63</ele>
        <time>2017-03-19T09:27:34Z</time>
      </trkpt>
      <trkpt lat="44.18335" lon="4.22139">
        <ele>179.63</ele>
        <time>2017-03-19T09:27:50Z</time>
      </trkpt>
      <trkpt lat="44.18317" lon="4.22132">
        <ele>177.13</ele>
        <time>2017-03-19T09:28:04Z</time>
      </trkpt>
      <trkpt lat="44.18299" lon="4.2213">
        <ele>178.58</ele>
        <time>2017-03-19T09:28:19Z</time>
      </trkpt>
      <trkpt lat="44.18281" lon="4.22124">
        <ele>187.72</ele>
        <time>2017-03-19T09:29:38Z</time>
      </trkpt>
      <trkpt lat="44.18263" lon="4.22116">
        <ele>185.02</ele>
        <time>2017-03-19T09:30:44Z</time>
      </trkpt>
      <trkpt lat="44.18245" lon="4.22105">
        <ele>190.01</ele>
        <time>2017-03-19T09:31:05Z</time>
      </trkpt>
      <trkpt lat="44.18229" lon="4.22092">
        <ele>190.63</ele>
        <time>2017-03-19T09:31:34Z</time>
      </trkpt>
      <trkpt lat="44.18212" lon="4.22083">
        <ele>193.53</ele>
        <time>2017-03-19T09:31:50Z</time>
      </trkpt>
      <trkpt lat="44.18196" lon="4.2207">
        <ele>194.32</ele>
        <time>2017-03-19T09:32:04Z</time>
      </trkpt>
      <trkpt lat="44.18179" lon="4.22057">
        <ele>193.51</ele>
        <time>2017-03-19T09:32:22Z</time>
      </trkpt>
      <trkpt lat="44.18164" lon="4.22042">
        <ele>189.89</ele>
        <time>2017-03-19T09:32:40Z</time>
      </trkpt>
      <trkpt lat="44.18149" lon="4.22027">
        <ele>186.93</ele>
        <time>2017-03-19T09:32:47Z</time>
      </trkpt>
      <trkpt lat="44.18131" lon="4.22023">
        <ele>193.6</ele>
        <time>2017-03-19T09:33:07Z</time>
      </trkpt>
      <trkpt lat="44.18117" lon="4.22041">
        <ele>193.54</ele>
        <time>2017-03-19T09:33:23Z</time>
      </trkpt>
      <trkpt lat="44.18101" lon="4.22055">
        <ele>195.55</ele>
        <time>2017-03-19T09:33:36Z</time>
      </trkpt>
      <trkpt lat="44.18082" lon="4.22052">
        <ele>196.9</ele>
        <time>2017-03-19T09:36:37Z</time>
      </trkpt>
      <trkpt lat="44.1807" lon="4.22032">
        <ele>196.46</ele>
        <time>2017-03-19T09:36:59Z</time>
      </trkpt>
      <trkpt lat="44.18058" lon="4.22011">
        <ele>201.6</ele>
        <time>2017-03-19T09:37:24Z</time>
      </trkpt>
      <trkpt lat="44.18045" lon="4.21992">
        <ele>197.33</ele>
        <time>2017-03-19T09:37:44Z</time>
      </trkpt>
      <trkpt lat="44.18032" lon="4.21971">
        <ele>201.38</ele>
        <time>2017-03-19T09:38:07Z</time>
      </trkpt>
      <trkpt lat="44.1802" lon="4.21951">
        <ele>202.29</ele>
        <time>2017-03-19T09:38:15Z</time>
      </trkpt>
      <trkpt lat="44.1801" lon="4.2193">
        <ele>205.45</ele>
        <time>2017-03-19T09:38:23Z</time>
      </trkpt>
      <trkpt lat="44.18008" lon="4.21904">
        <ele>203.4</ele>
        <time>2017-03-19T09:38:36Z</time>
      </trkpt>
      <trkpt lat="44.18" lon="4.21879">
        <ele>195.63</ele>
        <time>2017-03-19T09:39:00Z</time>
      </trkpt>
      <trkpt lat="44.17993" lon="4.21856">
        <ele>190.93</ele>
        <time>2017-03-19T09:39:24Z</time>
      </trkpt>
      <trkpt lat="44.17981" lon="4.21834">
        <ele>193.31</ele>
        <time>2017-03-19T09:39:37Z</time>
      </trkpt>
      <trkpt lat="44.17977" lon="4.21809">
        <ele>184.57</ele>
        <time>2017-03-19T09:39:55Z</time>
      </trkpt>
      <trkpt lat="44.17962" lon="4.21793">
        <ele>186.72</ele>
        <time>2017-03-19T09:40:03Z</time>
      </trkpt>
      <trkpt lat="44.17949" lon="4.21773">
        <ele>185.41</ele>
        <time>2017-03-19T09:40:21Z</time>
      </trkpt>
      <trkpt lat="44.17938" lon="4.21749">
        <ele>185.61</ele>
        <time>2017-03-19T09:40:38Z</time>
      </trkpt>
      <trkpt lat="44.17926" lon="4.2173">
        <ele>189.33</ele>
        <time>2017-03-19T09:40:54Z</time>
      </trkpt>
      <trkpt lat="44.17916" lon="4.21708">
        <ele>188.25</ele>
        <time>2017-03-19T09:41:12Z</time>
      </trkpt>
      <trkpt lat="44.17904" lon="4.21687">
        <ele>187.65</ele>
        <time>2017-03-19T09:41:27Z</time>
      </trkpt>
      <trkpt lat="44.17892" lon="4.21668">
        <ele>187.63</ele>
        <time>2017-03-19T09:41:36Z</time>
      </trkpt>
      <trkpt lat="44.17877" lon="4.21651">
        <ele>185.71</ele>
        <time>2017-03-19T09:41:57Z</time>
      </trkpt>
      <trkpt lat="44.17861" lon="4.21638">
        <ele>190.59</ele>
        <time>2017-03-19T09:42:15Z</time>
      </trkpt>
      <trkpt lat="44.17851" lon="4.21615">
        <ele>191.62</ele>
        <time>2017-03-19T09:42:35Z</time>
      </trkpt>
      <trkpt lat="44.17834" lon="4.21603">
        <ele>193.04</ele>
        <time>2017-03-19T09:42:52Z</time>
      </trkpt>
      <trkpt lat="44.17818" lon="4.21587">
        <ele>193.87</ele>
        <time>2017-03-19T09:43:14Z</time>
      </trkpt>
      <trkpt lat="44.17807" lon="4.21564">
        <ele>195.33</ele>
        <time>2017-03-19T09:43:37Z</time>
      </trkpt>
      <trkpt lat="44.17795" lon="4.21544">
        <ele>199.55</ele>
        <time>2017-03-19T09:43:52Z</time>
      </trkpt>
      <trkpt lat="44.17782" lon="4.21526">
        <ele>193.81</ele>
        <time>2017-03-19T09:44:07Z</time>
      </trkpt>
      <trkpt lat="44.17774" lon="4.21504">
        <ele>194.34</ele>
        <time>2017-03-19T09:44:24Z</time>
      </trkpt>
      <trkpt lat="44.17761" lon="4.21485">
        <ele>196.62</ele>
        <time>2017-03-19T09:44:40Z</time>
      </trkpt>
      <trkpt lat="44.1775" lon="4.21462">
        <ele>195.54</ele>
        <time>2017-03-19T09:44:54Z</time>
      </trkpt>
      <trkpt lat="44.17744" lon="4.21437">
        <ele>195.07</ele>
        <time>2017-03-19T09:45:13Z</time>
      </trkpt>
      <trkpt lat="44.17735" lon="4.2141">
        <ele>193.62</ele>
        <time>2017-03-19T09:45:36Z</time>
      </trkpt>
      <trkpt lat="44.1772" lon="4.21389">
        <ele>188.73</ele>
        <time>2017-03-19T09:45:52Z</time>
      </trkpt>
      <trkpt lat="44.17705" lon="4.21374">
        <ele>192.03</ele>
        <time>2017-03-19T09:45:59Z</time>
      </trkpt>
      <trkpt lat="44.17693" lon="4.21355">
        <ele>189.93</ele>
        <time>2017-03-19T09:46:25Z</time>
      </trkpt>
      <trkpt lat="44.1768" lon="4.21337">
        <ele>189.91</ele>
        <time>2017-03-19T09:47:01Z</time>
      </trkpt>
      <trkpt lat="44.17666" lon="4.21318">
        <ele>198.26</ele>
        <time>2017-03-19T09:47:23Z</time>
      </trkpt>
      <trkpt lat="44.17652" lon="4.21301">
        <ele>198.56</ele>
        <time>2017-03-19T09:47:36Z</time>
      </trkpt>
      <trkpt lat="44.17637" lon="4.21285">
        <ele>197.59</ele>
        <time>2017-03-19T09:47:57Z</time>
      </trkpt>
      <trkpt lat="44.17622" lon="4.2127">
        <ele>196.22</ele>
        <time>2017-03-19T09:48:21Z</time>
      </trkpt>
      <trkpt lat="44.17605" lon="4.21256">
        <ele>200.59</ele>
        <time>2017-03-19T09:48:30Z</time>
      </trkpt>
      <trkpt lat="44.17592" lon="4.21238">
        <ele>199.36</ele>
        <time>2017-03-19T09:48:44Z</time>
      </trkpt>
      <trkpt lat="44.17577" lon="4.21223">
        <ele>200.64</ele>
        <time>2017-03-19T09:49:06Z</time>
      </trkpt>
      <trkpt lat="44.1757" lon="4.21198">
        <ele>201.27</ele>
        <time>2017-03-19T09:49:21Z</time>
      </trkpt>
      <trkpt lat="44.17562" lon="4.21174">
        <ele>196.66</ele>
        <time>2017-03-19T09:49:46Z</time>
      </trkpt>
      <trkpt lat="44.17556" lon="4.21149">
        <ele>199.24</ele>
        <time>2017-03-19T09:49:55Z</time>
      </trkpt>
      <trkpt lat="44.17546" lon="4.21127">
        <ele>201.63</ele>
        <time>2017-03-19T09:50:10Z</time>
      </trkpt>
      <trkpt lat="44.17536" lon="4.21105">
        <ele>201.62</ele>
        <time>2017-03-19T09:50:40Z</time>
      </trkpt>
      <trkpt lat="44.17521" lon="4.2109">
        <ele>200.54</ele>
        <time>2017-03-19T09:51:36Z</time>
      </trkpt>
      <trkpt lat="44.17507" lon="4.2107">
        <ele>203.74</ele>
        <time>2017-03-19T09:51:54Z</time>
      </trkpt>
      <trkpt lat="44.17495" lon="4.21051">
        <ele>200.33</ele>
        <time>2017-03-19T09:52:12Z</time>
      </trkpt>
      <trkpt lat="44.17482" lon="4.21033">
        <ele>199.93</ele>
        <time>2017-03-19T09:52:27Z</time>
      </trkpt>
      <trkpt lat="44.1747" lon="4.21015">
        <ele>201.98</ele>
        <time>2017-03-19T09:52:41Z</time>
      </trkpt>
      <trkpt lat="44.17469" lon="4.20989">
        <ele>200.51</ele>
        <time>2017-03-19T09:53:48Z</time>
      </trkpt>
      <trkpt lat="44.17459" lon="4.20966">
        <ele>199.54</ele>
        <time>2017-03-19T09:54:24Z</time>
      </trkpt>
      <trkpt lat="44.17449" lon="4.20944">
        <ele>194.81</ele>
        <time>2017-03-19T09:54:47Z</time>
      </trkpt>
      <trkpt lat="44.1743" lon="4.20945">
        <ele>199.33</ele>
        <time>2017-03-19T09:55:18Z</time>
      </trkpt>
      <trkpt lat="44.17412" lon="4.20947">
        <ele>190.55</ele>
        <time>2017-03-19T09:55:53Z</time>
      </trkpt>
      <trkpt lat="44.17394" lon="4.2095">
        <ele>191.37</ele>
        <time>2017-03-19T09:56:12Z</time>
      </trkpt>
      <trkpt lat="44.17376" lon="4.20956">
        <ele>175.79</ele>
        <time>2017-03-19T09:56:58Z</time>
      </trkpt>
      <trkpt lat="44.17359" lon="4.20962">
        <ele>175.64</ele>
        <time>2017-03-19T09:57:16Z</time>
      </trkpt>
      <trkpt lat="44.17342" lon="4.20971">
        <ele>174.63</ele>
        <time>2017-03-19T09:57:45Z</time>
      </trkpt>
      <trkpt lat="44.17324" lon="4.20974">
        <ele>177.68</ele>
        <time>2017-03-19T09:58:01Z</time>
      </trkpt>
      <trkpt lat="44.17305" lon="4.20981">
        <ele>182.21</ele>
        <time>2017-03-19T09:58:35Z</time>
      </trkpt>
      <trkpt lat="44.17286" lon="4.2099">
        <ele>179.65</ele>
        <time>2017-03-19T09:58:48Z</time>
      </trkpt>
      <trkpt lat="44.17269" lon="4.20984">
        <ele>174.46</ele>
        <time>2017-03-19T09:59:09Z</time>
      </trkpt>
      <trkpt lat="44.17251" lon="4.20989">
        <ele>175.33</ele>
        <time>2017-03-19T09:59:22Z</time>
      </trkpt>
      <trkpt lat="44.17232" lon="4.2099">
        <ele>167.63</ele>
        <time>2017-03-19T10:00:00Z</time>
      </trkpt>
      <trkpt lat="44.17214" lon="4.20999">
        <ele>165.72</ele>
        <time>2017-03-19T10:00:15Z</time>
      </trkpt>
      <trkpt lat="44.17196" lon="4.20995">
        <ele>159.36</ele>
        <time>2017-03-19T10:00:33Z</time>
      </trkpt>
      <trkpt lat="44.17177" lon="4.21001">
        <ele>158.55</ele>
        <time>2017-03-19T10:01:05Z</time>
      </trkpt>
      <trkpt lat="44.17159" lon="4.21008">
        <ele>155.33</ele>
        <time>2017-03-19T10:01:41Z</time>
      </trkpt>
      <trkpt lat="44.1714" lon="4.21013">
        <ele>154.92</ele>
        <time>2017-03-19T10:02:01Z</time>
      </trkpt>
      <trkpt lat="44.17123" lon="4.21021">
        <ele>157.63</ele>
        <time>2017-03-19T10:02:18Z</time>
      </trkpt>
      <trkpt lat="44.17106" lon="4.21031">
        <ele>155.28</ele>
        <time>2017-03-19T10:02:35Z</time>
      </trkpt>
      <trkpt lat="44.17091" lon="4.21047">
        <ele>158.72</ele>
        <time>2017-03-19T10:02:51Z</time>
      </trkpt>
      <trkpt lat="44.17075" lon="4.2106">
        <ele>155.72</ele>
        <time>2017-03-19T10:03:48Z</time>
      </trkpt>
      <trkpt lat="44.17058" lon="4.2107">
        <ele>150.64</ele>
        <time>2017-03-19T10:04:04Z</time>
      </trkpt>
      <trkpt lat="44.17041" lon="4.21079">
        <ele>151.42</ele>
        <time>2017-03-19T10:04:13Z</time>
      </trkpt>
      <trkpt lat="44.17037" lon="4.21104">
        <ele>141.33</ele>
        <time>2017-03-19T10:04:37Z</time>
      </trkpt>
      <trkpt lat="44.17021" lon="4.21119">
        <ele>142.33</ele>
        <time>2017-03-19T10:04:54Z</time>
      </trkpt>
      <trkpt lat="44.1701" lon="4.2114">
        <ele>138.73</ele>
        <time>2017-03-19T10:05:15Z</time>
      </trkpt>
      <trkpt lat="44.17" lon="4.21162">
        <ele>136.63</ele>
        <time>2017-03-19T10:05:26Z</time>
      </trkpt>
      <trkpt lat="44.16992" lon="4.21186">
        <ele>131.21</ele>
        <time>2017-03-19T10:05:51Z</time>
      </trkpt>
      <trkpt lat="44.16979" lon="4.21207">
        <ele>137.47</ele>
        <time>2017-03-19T10:05:57Z</time>
      </trkpt>
      <trkpt lat="44.16966" lon="4.21225">
        <ele>136.63</ele>
        <time>2017-03-19T10:06:16Z</time>
      </trkpt>
      <trkpt lat="44.16948" lon="4.21232">
        <ele>134.33</ele>
        <time>2017-03-19T10:06:34Z</time>
      </trkpt>
      <trkpt lat="44.16928" lon="4.21239">
        <ele>140.32</ele>
        <time>2017-03-19T10:06:44Z</time>
      </trkpt>
      <trkpt lat="44.1691" lon="4.21241">
        <ele>137.2</ele>
        <time>2017-03-19T10:06:51Z</time>
      </trkpt>
      <trkpt lat="44.16891" lon="4.21244">
        <ele>136.73</ele>
        <time>2017-03-19T10:07:23Z</time>
      </trkpt>
      <trkpt lat="44.16876" lon="4.21229">
        <ele>140.61</ele>
        <time>2017-03-19T10:07:32Z</time>
      </trkpt>
      <trkpt lat="44.16857" lon="4.21225">
        <ele>142.34</ele>
        <time>2017-03-19T10:07:47Z</time>
      </trkpt>
      <trkpt lat="44.1684" lon="4.21237">
        <ele>138.2</ele>
        <time>2017-03-19T10:08:46Z</time>
      </trkpt>
      <trkpt lat="44.16826" lon="4.21252">
        <ele>136.04</ele>
        <time>2017-03-19T10:08:57Z</time>
      </trkpt>
      <trkpt lat="44.16811" lon="4.21267">
        <ele>126.64</ele>
        <time>2017-03-19T10:09:15Z</time>
      </trkpt>
      <trkpt lat="44.16797" lon="4.21288">
        <ele>134.57</ele>
        <time>2017-03-19T10:09:22Z</time>
      </trkpt>
      <trkpt lat="44.16787" lon="4.21309">
        <ele>136.6</ele>
        <time>2017-03-19T10:09:51Z</time>
      </trkpt>
      <trkpt lat="44.16774" lon="4.21329">
        <ele>139.52</ele>
        <time>2017-03-19T10:10:09Z</time>
      </trkpt>
      <trkpt lat="44.16761" lon="4.21349">
        <ele>141.36</ele>
        <time>2017-03-19T10:10:20Z</time>
      </trkpt>
      <trkpt lat="44.16746" lon="4.21367">
        <ele>140.53</ele>
        <time>2017-03-19T10:10:54Z</time>
      </trkpt>
      <trkpt lat="44.16735" lon="4.21387">
        <ele>135.75</ele>
        <time>2017-03-19T10:11:12Z</time>
      </trkpt>
      <trkpt lat="44.16724" lon="4.21407">
        <ele>140.62</ele>
        <time>2017-03-19T10:12:18Z</time>
      </trkpt>
      <trkpt lat="44.1672" lon="4.21432">
        <ele>136.54</ele>
        <time>2017-03-19T10:12:33Z</time>
      </trkpt>
      <trkpt lat="44.16718" lon="4.21457">
        <ele>135.81</ele>
        <time>2017-03-19T10:13:39Z</time>
      </trkpt>
      <trkpt lat="44.16716" lon="4.21483">
        <ele>139.24</ele>
        <time>2017-03-19T10:13:58Z</time>
      </trkpt>
      <trkpt lat="44.16711" lon="4.21507">
        <ele>137.59</ele>
        <time>2017-03-19T10:14:18Z</time>
      </trkpt>
      <trkpt lat="44.1671" lon="4.21532">
        <ele>138.24</ele>
        <time>2017-03-19T10:14:45Z</time>
      </trkpt>
      <trkpt lat="44.16709" lon="4.21559">
        <ele>135.75</ele>
        <time>2017-03-19T10:15:02Z</time>
      </trkpt>
      <trkpt lat="44.16702" lon="4.21584">
        <ele>135.4</ele>
        <time>2017-03-19T10:15:16Z</time>
      </trkpt>
      <trkpt lat="44.16694" lon="4.21609">
        <ele>135.32</ele>
        <time>2017-03-19T10:15:35Z</time>
      </trkpt>
      <trkpt lat="44.16688" lon="4.21634">
        <ele>138.84</ele>
        <time>2017-03-19T10:15:47Z</time>
      </trkpt>
      <trkpt lat="44.16686" lon="4.2166">
        <ele>138.47</ele>
        <time>2017-03-19T10:16:04Z</time>
      </trkpt>
      <trkpt lat="44.1668" lon="4.21684">
        <ele>142.35</ele>
        <time>2017-03-19T10:16:27Z</time>
      </trkpt>
      <trkpt lat="44.16677" lon="4.2171">
        <ele>139.84</ele>
        <time>2017-03-19T10:16:37Z</time>
      </trkpt>
      <trkpt lat="44.16673" lon="4.21734">
        <ele>138.94</ele>
        <time>2017-03-19T10:17:00Z</time>
      </trkpt>
      <trkpt lat="44.16666" lon="4.21758">
        <ele>138.6</ele>
        <time>2017-03-19T10:17:10Z</time>
      </trkpt>
      <trkpt lat="44.16664" lon="4.21784">
        <ele>135.63</ele>
        <time>2017-03-19T10:17:55Z</time>
      </trkpt>
      <trkpt lat="44.16659" lon="4.21808">
        <ele>139.1</ele>
        <time>2017-03-19T10:18:14Z</time>
      </trkpt>
      <trkpt lat="44.16649" lon="4.21831">
        <ele>137.93</ele>
        <time>2017-03-19T10:18:31Z</time>
      </trkpt>
      <trkpt lat="44.16642" lon="4.21854">
        <ele>139.62</ele>
        <time>2017-03-19T10:18:48Z</time>
      </trkpt>
      <trkpt lat="44.16633" lon="4.21878">
        <ele>141.23</ele>
        <time>2017-03-19T10:19:06Z</time>
      </trkpt>
      <trkpt lat="44.16625" lon="4.21901">
        <ele>138.81</ele>
        <time>2017-03-19T10:19:27Z</time>
      </trkpt>
      <trkpt lat="44.16617" lon="4.21925">
        <ele>139.57</ele>
        <time>2017-03-19T10:19:43Z</time>
      </trkpt>
      <trkpt lat="44.16608" lon="4.21949">
        <ele>141.31</ele>
        <time>2017-03-19T10:19:58Z</time>
      </trkpt>
      <trkpt lat="44.16602" lon="4.21973">
        <ele>138.66</ele>
        <time>2017-03-19T10:20:09Z</time>
      </trkpt>
      <trkpt lat="44.16608" lon="4.21998">
        <ele>142.61</ele>
        <time>2017-03-19T10:20:26Z</time>
      </trkpt>
      <trkpt lat="44.1661" lon="4.22024">
        <ele>134.53</ele>
        <time>2017-03-19T10:20:48Z</time>
      </trkpt>
      <trkpt lat="44.16614" lon="4.22048">
        <ele>138.47</ele>
        <time>2017-03-19T10:20:57Z</time>
      </trkpt>
      <trkpt lat="44.16616" lon="4.22073">
        <ele>138.43</ele>
        <time>2017-03-19T10:21:17Z</time>
      </trkpt>
      <trkpt lat="44.1661" lon="4.22099">
        <ele>136.66</ele>
        <time>2017-03-19T10:21:24Z</time>
      </trkpt>
      <trkpt lat="44.16599" lon="4.22123">
        <ele>133.59</ele>
        <time>2017-03-19T10:21:36Z</time>
      </trkpt>
      <trkpt lat="44.16609" lon="4.22145">
        <ele>141.22</ele>
        <time>2017-03-19T10:23:06Z</time>
      </trkpt>
      <trkpt lat="44.16608" lon="4.22172">
        <ele>141.54</ele>
        <time>2017-03-19T10:23:48Z</time>
      </trkpt>
      <trkpt lat="44.16611" lon="4.22197">
        <ele>140.91</ele>
        <time>2017-03-19T10:24:10Z</time>
      </trkpt>
      <trkpt lat="44.16614" lon="4.22222">
        <ele>147.59</ele>
        <time>2017-03-19T10:24:27Z</time>
      </trkpt>
      <trkpt lat="44.16613" lon="4.2225">
        <ele>147.35</ele>
        <time>2017-03-19T10:24:47Z</time>
      </trkpt>
      <trkpt lat="44.16608" lon="4.22277">
        <ele>146.66</ele>
        <time>2017-03-19T10:24:59Z</time>
      </trkpt>
      <trkpt lat="44.16602" lon="4.22302">
        <ele>141.35</ele>
        <time>2017-03-19T10:25:11Z</time>
      </trkpt>
      <trkpt lat="44.16595" lon="4.22326">
        <ele>134.74</ele>
        <time>2017-03-19T10:25:33Z</time>
      </trkpt>
      <trkpt lat="44.16594" lon="4.22354">
        <ele>144.23</ele>
        <time>2017-03-19T10:25:48Z</time>
      </trkpt>
      <trkpt lat="44.16592" lon="4.22383">
        <ele>143.43</ele>
        <time>2017-03-19T10:26:09Z</time>
      </trkpt>
      <trkpt lat="44.16587" lon="4.22408">
        <ele>142.62</ele>
        <time>2017-03-19T10:26:24Z</time>
      </trkpt>
      <trkpt lat="44.16586" lon="4.22434">
        <ele>143.95</ele>
        <time>2017-03-19T10:26:44Z</time>
      </trkpt>
      <trkpt lat="44.16581" lon="4.22458">
        <ele>144.62</ele>
        <time>2017-03-19T10:26:56Z</time>
      </trkpt>
      <trkpt lat="44.16577" lon="4.22484">
        <ele>146.93</ele>
        <time>2017-03-19T10:27:09Z</time>
      </trkpt>
      <trkpt lat="44.16575" lon="4.2251">
        <ele>144.96</ele>
        <time>2017-03-19T10:27:27Z</time>
      </trkpt>
      <trkpt lat="44.16569" lon="4.22536">
        <ele>144.85</ele>
        <time>2017-03-19T10:27:44Z</time>
      </trkpt>
      <trkpt lat="44.16564" lon="4.22561">
        <ele>144.88</ele>
        <time>2017-03-19T10:27:56Z</time>
      </trkpt>
      <trkpt lat="44.16561" lon="4.22587">
        <ele>141.93</ele>
        <time>2017-03-19T10:28:14Z</time>
      </trkpt>
      <trkpt lat="44.16557" lon="4.22613">
        <ele>138.43</ele>
        <time>2017-03-19T10:28:46Z</time>
      </trkpt>
      <trkpt lat="44.16551" lon="4.22638">
        <ele>140.42</ele>
        <time>2017-03-19T10:29:06Z</time>
      </trkpt>
      <trkpt lat="44.16544" lon="4.22665">
        <ele>146.14</ele>
        <time>2017-03-19T10:29:23Z</time>
      </trkpt>
      <trkpt lat="44.1654" lon="4.2269">
        <ele>147.65</ele>
        <time>2017-03-19T10:29:39Z</time>
      </trkpt>
      <trkpt lat="44.16539" lon="4.22716">
        <ele>142.93</ele>
        <time>2017-03-19T10:31:39Z</time>
      </trkpt>
      <trkpt lat="44.16538" lon="4.22741">
        <ele>147.62</ele>
        <time>2017-03-19T10:33:51Z</time>
      </trkpt>
      <trkpt lat="44.16532" lon="4.22767">
        <ele>146.64</ele>
        <time>2017-03-19T10:34:10Z</time>
      </trkpt>
      <trkpt lat="44.16529" lon="4.22793">
        <ele>148.55</ele>
        <time>2017-03-19T10:34:20Z</time>
      </trkpt>
      <trkpt lat="44.16529" lon="4.2282">
        <ele>146.95</ele>
        <time>2017-03-19T10:34:45Z</time>
      </trkpt>
      <trkpt lat="44.16533" lon="4.22846">
        <ele>148.42</ele>
        <time>2017-03-19T10:35:04Z</time>
      </trkpt>
      <trkpt lat="44.16532" lon="4.22872">
        <ele>149.84</ele>
        <time>2017-03-19T10:35:13Z</time>
      </trkpt>
      <trkpt lat="44.16535" lon="4.229">
        <ele>151.87</ele>
        <time>2017-03-19T10:35:22Z</time>
      </trkpt>
      <trkpt lat="44.16536" lon="4.22925">
        <ele>149.55</ele>
        <time>2017-03-19T10:36:18Z</time>
      </trkpt>
      <trkpt lat="44.16537" lon="4.22951">
        <ele>148.1</ele>
        <time>2017-03-19T10:36:31Z</time>
      </trkpt>
      <trkpt lat="44.16537" lon="4.22978">
        <ele>143.71</ele>
        <time>2017-03-19T10:36:40Z</time>
      </trkpt>
      <trkpt lat="44.16544" lon="4.23003">
        <ele>147.33</ele>
        <time>2017-03-19T10:37:09Z</time>
      </trkpt>
      <trkpt lat="44.16543" lon="4.2303">
        <ele>150.38</ele>
        <time>2017-03-19T10:37:18Z</time>
      </trkpt>
      <trkpt lat="44.16542" lon="4.23057">
        <ele>150.94</ele>
        <time>2017-03-19T10:37:25Z</time>
      </trkpt>
      <trkpt lat="44.16541" lon="4.23082">
        <ele>148.67</ele>
        <time>2017-03-19T10:37:34Z</time>
      </trkpt>
      <trkpt lat="44.16548" lon="4.23105">
        <ele>156.33</ele>
        <time>2017-03-19T10:38:09Z</time>
      </trkpt>
      <trkpt lat="44.16551" lon="4.23132">
        <ele>152.95</ele>
        <time>2017-03-19T10:38:20Z</time>
      </trkpt>
      <trkpt lat="44.16542" lon="4.23156">
        <ele>149.72</ele>
        <time>2017-03-19T10:38:28Z</time>
      </trkpt>
      <trkpt lat="44.1653" lon="4.23176">
        <ele>152.37</ele>
        <time>2017-03-19T10:38:45Z</time>
      </trkpt>
      <trkpt lat="44.16517" lon="4.23195">
        <ele>147.94</ele>
        <time>2017-03-19T10:38:55Z</time>
      </trkpt>
      <trkpt lat="44.16504" lon="4.23213">
        <ele>152.9</ele>
        <time>2017-03-19T10:39:19Z</time>
      </trkpt>
      <trkpt lat="44.1649" lon="4.23229">
        <ele>151.26</ele>
        <time>2017-03-19T10:39:30Z</time>
      </trkpt>
      <trkpt lat="44.16474" lon="4.23247">
        <ele>147.44</ele>
        <time>2017-03-19T10:39:44Z</time>
      </trkpt>
      <trkpt lat="44.16462" lon="4.23267">
        <ele>150.33</ele>
        <time>2017-03-19T10:40:03Z</time>
      </trkpt>
      <trkpt lat="44.16447" lon="4.23284">
        <ele>147.32</ele>
        <time>2017-03-19T10:40:18Z</time>
      </trkpt>
      <trkpt lat="44.16441" lon="4.23311">
        <ele>147.37</ele>
        <time>2017-03-19T10:40:36Z</time>
      </trkpt>
      <trkpt lat="44.16432" lon="4.23335">
        <ele>152.21</ele>
        <time>2017-03-19T10:40:55Z</time>
      </trkpt>
      <trkpt lat="44.16428" lon="4.23362">
        <ele>153.37</ele>
        <time>2017-03-19T10:41:05Z</time>
      </trkpt>
      <trkpt lat="44.16433" lon="4.23387">
        <ele>155.47</ele>
        <time>2017-03-19T10:41:21Z</time>
      </trkpt>
      <trkpt lat="44.16437" lon="4.23414">
        <ele>154.59</ele>
        <time>2017-03-19T10:41:31Z</time>
      </trkpt>
      <trkpt lat="44.16442" lon="4.2344">
        <ele>160.51</ele>
        <time>2017-03-19T10:41:52Z</time>
      </trkpt>
      <trkpt lat="44.16439" lon="4.23466">
        <ele>159.71</ele>
        <time>2017-03-19T10:42:01Z</time>
      </trkpt>
      <trkpt lat="44.16428" lon="4.23487">
        <ele>154.41</ele>
        <time>2017-03-19T10:42:18Z</time>
      </trkpt>
      <trkpt lat="44.16418" lon="4.23507">
        <ele>151.73</ele>
        <time>2017-03-19T10:42:27Z</time>
      </trkpt>
      <trkpt lat="44.16409" lon="4.23531">
        <ele>149.33</ele>
        <time>2017-03-19T10:42:55Z</time>
      </trkpt>
      <trkpt lat="44.16398" lon="4.23555">
        <ele>150.83</ele>
        <time>2017-03-19T10:43:02Z</time>
      </trkpt>
      <trkpt lat="44.16394" lon="4.23581">
        <ele>158.33</ele>
        <time>2017-03-19T10:44:47Z</time>
      </trkpt>
      <trkpt lat="44.16387" lon="4.23604">
        <ele>157.63</ele>
        <time>2017-03-19T10:45:03Z</time>
      </trkpt>
      <trkpt lat="44.1638" lon="4.23628">
        <ele>156.44</ele>
        <time>2017-03-19T10:45:16Z</time>
      </trkpt>
      <trkpt lat="44.16371" lon="4.23651">
        <ele>160.44</ele>
        <time>2017-03-19T10:47:15Z</time>
      </trkpt>
      <trkpt lat="44.16357" lon="4.2367">
        <ele>164.2</ele>
        <time>2017-03-19T10:47:30Z</time>
      </trkpt>
      <trkpt lat="44.16342" lon="4.23688">
        <ele>163.21</ele>
        <time>2017-03-19T10:47:48Z</time>
      </trkpt>
      <trkpt lat="44.16334" lon="4.23711">
        <ele>162.6</ele>
        <time>2017-03-19T10:48:06Z</time>
      </trkpt>
      <trkpt lat="44.16339" lon="4.23736">
        <ele>159.53</ele>
        <time>2017-03-19T10:49:08Z</time>
      </trkpt>
      <trkpt lat="44.16339" lon="4.23764">
        <ele>155.84</ele>
        <time>2017-03-19T10:49:47Z</time>
      </trkpt>
      <trkpt lat="44.16341" lon="4.23791">
        <ele>151.63</ele>
        <time>2017-03-19T10:50:10Z</time>
      </trkpt>
      <trkpt lat="44.1634" lon="4.23816">
        <ele>158.72</ele>
        <time>2017-03-19T10:50:26Z</time>
      </trkpt>
      <trkpt lat="44.16343" lon="4.23842">
        <ele>162.92</ele>
        <time>2017-03-19T10:50:47Z</time>
      </trkpt>
      <trkpt lat="44.16343" lon="4.23868">
        <ele>168.7</ele>
        <time>2017-03-19T10:51:03Z</time>
      </trkpt>
      <trkpt lat="44.16334" lon="4.23891">
        <ele>168.79</ele>
        <time>2017-03-19T10:51:25Z</time>
      </trkpt>
      <trkpt lat="44.16321" lon="4.23908">
        <ele>170.57</ele>
        <time>2017-03-19T10:51:46Z</time>
      </trkpt>
      <trkpt lat="44.16312" lon="4.23931">
        <ele>175.62</ele>
        <time>2017-03-19T10:52:13Z</time>
      </trkpt>
      <trkpt lat="44.16305" lon="4.23957">
        <ele>176.63</ele>
        <time>2017-03-19T10:52:36Z</time>
      </trkpt>
      <trkpt lat="44.16289" lon="4.23968">
        <ele>180.41</ele>
        <time>2017-03-19T10:53:22Z</time>
      </trkpt>
      <trkpt lat="44.16272" lon="4.23981">
        <ele>176.63</ele>
        <time>2017-03-19T10:53:44Z</time>
      </trkpt>
      <trkpt lat="44.16267" lon="4.24005">
        <ele>178.39</ele>
        <time>2017-03-19T10:54:09Z</time>
      </trkpt>
      <trkpt lat="44.16258" lon="4.24028">
        <ele>178.35</ele>
        <time>2017-03-19T10:54:42Z</time>
      </trkpt>
      <trkpt lat="44.16251" lon="4.24052">
        <ele>183.81</ele>
        <time>2017-03-19T10:55:04Z</time>
      </trkpt>
      <trkpt lat="44.16259" lon="4.24075">
        <ele>190.83</ele>
        <time>2017-03-19T10:55:51Z</time>
      </trkpt>
      <trkpt lat="44.16249" lon="4.24096">
        <ele>188.45</ele>
        <time>2017-03-19T10:59:31Z</time>
      </trkpt>
      <trkpt lat="44.1624" lon="4.2412">
        <ele>192.95</ele>
        <time>2017-03-19T11:00:32Z</time>
      </trkpt>
      <trkpt lat="44.16243" lon="4.24145">
        <ele>195.75</ele>
        <time>2017-03-19T11:00:50Z</time>
      </trkpt>
      <trkpt lat="44.16249" lon="4.24171">
        <ele>188.69</ele>
        <time>2017-03-19T11:01:44Z</time>
      </trkpt>
      <trkpt lat="44.16267" lon="4.24174">
        <ele>194.59</ele>
        <time>2017-03-19T11:02:52Z</time>
      </trkpt>
      <trkpt lat="44.16285" lon="4.24182">
        <ele>195.63</ele>
        <time>2017-03-19T11:03:28Z</time>
      </trkpt>
      <trkpt lat="44.16296" lon="4.24161">
        <ele>194.66</ele>
        <time>2017-03-19T11:04:00Z</time>
      </trkpt>
      <trkpt lat="44.16305" lon="4.24137">
        <ele>190.84</ele>
        <time>2017-03-19T11:04:20Z</time>
      </trkpt>
      <trkpt lat="44.16319" lon="4.2412">
        <ele>191.54</ele>
        <time>2017-03-19T11:04:32Z</time>
      </trkpt>
      <trkpt lat="44.16303" lon="4.24105">
        <ele>187.65</ele>
        <time>2017-03-19T11:05:01Z</time>
      </trkpt>
      <trkpt lat="44.16289" lon="4.24089">
        <ele>189.78</ele>
        <time>2017-03-19T11:05:22Z</time>
      </trkpt>
      <trkpt lat="44.16306" lon="4.24105">
        <ele>196.68</ele>
        <time>2017-03-19T11:06:36Z</time>
      </trkpt>
      <trkpt lat="44.16322" lon="4.24094">
        <ele>194.27</ele>
        <time>2017-03-19T11:06:58Z</time>
      </trkpt>
      <trkpt lat="44.16315" lon="4.2407">
        <ele>188.92</ele>
        <time>2017-03-19T11:07:25Z</time>
      </trkpt>
      <trkpt lat="44.16301" lon="4.24054">
        <ele>188.2</ele>
        <time>2017-03-19T11:07:55Z</time>
      </trkpt>
      <trkpt lat="44.16283" lon="4.24046">
        <ele>192.6</ele>
        <time>2017-03-19T11:08:14Z</time>
      </trkpt>
      <trkpt lat="44.16265" lon="4.24043">
        <ele>191.65</ele>
        <time>2017-03-19T11:08:36Z</time>
      </trkpt>
      <trkpt lat="44.16246" lon="4.24038">
        <ele>199.84</ele>
        <time>2017-03-19T11:09:09Z</time>
      </trkpt>
      <trkpt lat="44.16232" lon="4.24053">
        <ele>197.9</ele>
        <time>2017-03-19T11:09:36Z</time>
      </trkpt>
      <trkpt lat="44.16216" lon="4.24035">
        <ele>191.47</ele>
        <time>2017-03-19T11:10:49Z</time>
      </trkpt>
      <trkpt lat="44.16211" lon="4.24011">
        <ele>181.16</ele>
        <time>2017-03-19T11:11:19Z</time>
      </trkpt>
      <trkpt lat="44.16198" lon="4.23993">
        <ele>185.62</ele>
        <time>2017-03-19T11:12:28Z</time>
      </trkpt>
      <trkpt lat="44.16204" lon="4.23969">
        <ele>181.66</ele>
        <time>2017-03-19T11:12:47Z</time>
      </trkpt>
      <trkpt lat="44.16211" lon="4.23945">
        <ele>175</ele>
        <time>2017-03-19T11:13:14Z</time>
      </trkpt>
      <trkpt lat="44.16216" lon="4.23921">
        <ele>171.84</ele>
        <time>2017-03-19T11:14:31Z</time>
      </trkpt>
      <trkpt lat="44.16234" lon="4.23924">
        <ele>169.29</ele>
        <time>2017-03-19T11:15:11Z</time>
      </trkpt>
      <trkpt lat="44.16252" lon="4.23925">
        <ele>172.33</ele>
        <time>2017-03-19T11:15:37Z</time>
      </trkpt>
      <trkpt lat="44.16269" lon="4.23915">
        <ele>168.42</ele>
        <time>2017-03-19T11:16:37Z</time>
      </trkpt>
      <trkpt lat="44.16287" lon="4.23908">
        <ele>172.59</ele>
        <time>2017-03-19T11:16:53Z</time>
      </trkpt>
      <trkpt lat="44.16306" lon="4.23905">
        <ele>170.33</ele>
        <time>2017-03-19T11:17:11Z</time>
      </trkpt>
      <trkpt lat="44.16324" lon="4.23898">
        <ele>167.75</ele>
        <time>2017-03-19T11:17:28Z</time>
      </trkpt>
      <trkpt lat="44.16341" lon="4.23886">
        <ele>166.33</ele>
        <time>2017-03-19T11:17:48Z</time>
      </trkpt>
      <trkpt lat="44.16329" lon="4.23906">
        <ele>166.63</ele>
        <time>2017-03-19T11:18:27Z</time>
      </trkpt>
      <trkpt lat="44.16317" lon="4.23924">
        <ele>166.9</ele>
        <time>2017-03-19T11:18:50Z</time>
      </trkpt>
      <trkpt lat="44.16313" lon="4.2395">
        <ele>177.36</ele>
        <time>2017-03-19T11:19:13Z</time>
      </trkpt>
      <trkpt lat="44.16331" lon="4.23957">
        <ele>176.62</ele>
        <time>2017-03-19T11:19:46Z</time>
      </trkpt>
      <trkpt lat="44.16349" lon="4.23961">
        <ele>177.68</ele>
        <time>2017-03-19T11:19:56Z</time>
      </trkpt>
      <trkpt lat="44.16367" lon="4.23955">
        <ele>174.41</ele>
        <time>2017-03-19T11:20:09Z</time>
      </trkpt>
      <trkpt lat="44.16348" lon="4.23955">
        <ele>172.84</ele>
        <time>2017-03-19T12:06:15Z</time>
      </trkpt>
      <trkpt lat="44.1633" lon="4.23959">
        <ele>174.27</ele>
        <time>2017-03-19T12:06:27Z</time>
      </trkpt>
      <trkpt lat="44.16318" lon="4.2394">
        <ele>169.64</ele>
        <time>2017-03-19T12:07:00Z</time>
      </trkpt>
      <trkpt lat="44.16319" lon="4.23914">
        <ele>172.2</ele>
        <time>2017-03-19T12:07:16Z</time>
      </trkpt>
      <trkpt lat="44.16333" lon="4.23896">
        <ele>162.9</ele>
        <time>2017-03-19T12:07:38Z</time>
      </trkpt>
      <trkpt lat="44.16342" lon="4.23872">
        <ele>162.63</ele>
        <time>2017-03-19T12:07:53Z</time>
      </trkpt>
      <trkpt lat="44.16346" lon="4.23847">
        <ele>158.54</ele>
        <time>2017-03-19T12:08:09Z</time>
      </trkpt>
      <trkpt lat="44.1635" lon="4.23822">
        <ele>157.85</ele>
        <time>2017-03-19T12:08:31Z</time>
      </trkpt>
      <trkpt lat="44.16349" lon="4.23796">
        <ele>156.58</ele>
        <time>2017-03-19T12:08:56Z</time>
      </trkpt>
      <trkpt lat="44.16349" lon="4.2377">
        <ele>161.15</ele>
        <time>2017-03-19T12:09:16Z</time>
      </trkpt>
      <trkpt lat="44.16343" lon="4.23746">
        <ele>158.65</ele>
        <time>2017-03-19T12:09:32Z</time>
      </trkpt>
      <trkpt lat="44.16342" lon="4.23719">
        <ele>159.78</ele>
        <time>2017-03-19T12:10:07Z</time>
      </trkpt>
      <trkpt lat="44.1635" lon="4.23697">
        <ele>157.43</ele>
        <time>2017-03-19T12:10:23Z</time>
      </trkpt>
      <trkpt lat="44.1636" lon="4.23676">
        <ele>152.34</ele>
        <time>2017-03-19T12:10:34Z</time>
      </trkpt>
      <trkpt lat="44.16376" lon="4.23662">
        <ele>150.61</ele>
        <time>2017-03-19T12:11:50Z</time>
      </trkpt>
      <trkpt lat="44.16394" lon="4.23655">
        <ele>149.25</ele>
        <time>2017-03-19T12:12:06Z</time>
      </trkpt>
      <trkpt lat="44.1641" lon="4.23642">
        <ele>152.93</ele>
        <time>2017-03-19T12:12:43Z</time>
      </trkpt>
      <trkpt lat="44.16428" lon="4.23638">
        <ele>153.01</ele>
        <time>2017-03-19T12:12:53Z</time>
      </trkpt>
      <trkpt lat="44.16446" lon="4.23631">
        <ele>151.04</ele>
        <time>2017-03-19T12:13:07Z</time>
      </trkpt>
      <trkpt lat="44.16464" lon="4.23624">
        <ele>153.65</ele>
        <time>2017-03-19T12:13:21Z</time>
      </trkpt>
      <trkpt lat="44.16482" lon="4.23622">
        <ele>150.64</ele>
        <time>2017-03-19T12:13:36Z</time>
      </trkpt>
      <trkpt lat="44.16501" lon="4.23618">
        <ele>148.61</ele>
        <time>2017-03-19T12:13:51Z</time>
      </trkpt>
      <trkpt lat="44.16519" lon="4.2361">
        <ele>149.44</ele>
        <time>2017-03-19T12:14:12Z</time>
      </trkpt>
      <trkpt lat="44.16537" lon="4.23603">
        <ele>145.75</ele>
        <time>2017-03-19T12:14:24Z</time>
      </trkpt>
      <trkpt lat="44.16555" lon="4.23598">
        <ele>144.62</ele>
        <time>2017-03-19T12:14:47Z</time>
      </trkpt>
      <trkpt lat="44.16573" lon="4.23591">
        <ele>149.24</ele>
        <time>2017-03-19T12:15:25Z</time>
      </trkpt>
      <trkpt lat="44.16592" lon="4.23587">
        <ele>147.32</ele>
        <time>2017-03-19T12:15:45Z</time>
      </trkpt>
      <trkpt lat="44.16609" lon="4.23579">
        <ele>149.54</ele>
        <time>2017-03-19T12:16:04Z</time>
      </trkpt>
      <trkpt lat="44.16626" lon="4.2357">
        <ele>150.08</ele>
        <time>2017-03-19T12:16:20Z</time>
      </trkpt>
      <trkpt lat="44.16645" lon="4.23567">
        <ele>144.68</ele>
        <time>2017-03-19T12:16:39Z</time>
      </trkpt>
      <trkpt lat="44.16663" lon="4.23568">
        <ele>138.95</ele>
        <time>2017-03-19T12:16:56Z</time>
      </trkpt>
      <trkpt lat="44.16682" lon="4.23569">
        <ele>139.25</ele>
        <time>2017-03-19T12:17:12Z</time>
      </trkpt>
      <trkpt lat="44.167" lon="4.23567">
        <ele>142.2</ele>
        <time>2017-03-19T12:17:31Z</time>
      </trkpt>
      <trkpt lat="44.16719" lon="4.23565">
        <ele>144.55</ele>
        <time>2017-03-19T12:17:49Z</time>
      </trkpt>
      <trkpt lat="44.16737" lon="4.23565">
        <ele>139.05</ele>
        <time>2017-03-19T12:18:02Z</time>
      </trkpt>
      <trkpt lat="44.16756" lon="4.23563">
        <ele>144.94</ele>
        <time>2017-03-19T12:18:52Z</time>
      </trkpt>
      <trkpt lat="44.16772" lon="4.2355">
        <ele>139.43</ele>
        <time>2017-03-19T12:19:02Z</time>
      </trkpt>
      <trkpt lat="44.16789" lon="4.23538">
        <ele>142.53</ele>
        <time>2017-03-19T12:19:16Z</time>
      </trkpt>
      <trkpt lat="44.16804" lon="4.23523">
        <ele>145.6</ele>
        <time>2017-03-19T12:19:30Z</time>
      </trkpt>
      <trkpt lat="44.16819" lon="4.23508">
        <ele>148.6</ele>
        <time>2017-03-19T12:19:46Z</time>
      </trkpt>
      <trkpt lat="44.16833" lon="4.23492">
        <ele>149.66</ele>
        <time>2017-03-19T12:20:01Z</time>
      </trkpt>
      <trkpt lat="44.16849" lon="4.23479">
        <ele>145.73</ele>
        <time>2017-03-19T12:20:21Z</time>
      </trkpt>
      <trkpt lat="44.16865" lon="4.23467">
        <ele>142.54</ele>
        <time>2017-03-19T12:20:39Z</time>
      </trkpt>
      <trkpt lat="44.16876" lon="4.23444">
        <ele>139.02</ele>
        <time>2017-03-19T12:20:51Z</time>
      </trkpt>
      <trkpt lat="44.16892" lon="4.23432">
        <ele>146.66</ele>
        <time>2017-03-19T12:28:31Z</time>
      </trkpt>
      <trkpt lat="44.16909" lon="4.23421">
        <ele>146.89</ele>
        <time>2017-03-19T12:28:44Z</time>
      </trkpt>
      <trkpt lat="44.16926" lon="4.23409">
        <ele>142.6</ele>
        <time>2017-03-19T12:29:01Z</time>
      </trkpt>
      <trkpt lat="44.16943" lon="4.23397">
        <ele>141.98</ele>
        <time>2017-03-19T12:29:22Z</time>
      </trkpt>
      <trkpt lat="44.16958" lon="4.23383">
        <ele>137.66</ele>
        <time>2017-03-19T12:29:38Z</time>
      </trkpt>
      <trkpt lat="44.16976" lon="4.2338">
        <ele>136.31</ele>
        <time>2017-03-19T12:29:58Z</time>
      </trkpt>
      <trkpt lat="44.16994" lon="4.23376">
        <ele>138.61</ele>
        <time>2017-03-19T12:30:12Z</time>
      </trkpt>
      <trkpt lat="44.17011" lon="4.23369">
        <ele>144.62</ele>
        <time>2017-03-19T12:30:28Z</time>
      </trkpt>
      <trkpt lat="44.1703" lon="4.23366">
        <ele>143.63</ele>
        <time>2017-03-19T12:30:47Z</time>
      </trkpt>
      <trkpt lat="44.17048" lon="4.23362">
        <ele>143.63</ele>
        <time>2017-03-19T12:31:03Z</time>
      </trkpt>
      <trkpt lat="44.17066" lon="4.23355">
        <ele>143.72</ele>
        <time>2017-03-19T12:31:22Z</time>
      </trkpt>
      <trkpt lat="44.17084" lon="4.2335">
        <ele>145.39</ele>
        <time>2017-03-19T12:31:41Z</time>
      </trkpt>
      <trkpt lat="44.17103" lon="4.23346">
        <ele>141.98</ele>
        <time>2017-03-19T12:31:55Z</time>
      </trkpt>
      <trkpt lat="44.17121" lon="4.23344">
        <ele>135.35</ele>
        <time>2017-03-19T12:32:13Z</time>
      </trkpt>
      <trkpt lat="44.17138" lon="4.23332">
        <ele>136.71</ele>
        <time>2017-03-19T12:32:28Z</time>
      </trkpt>
      <trkpt lat="44.17157" lon="4.23331">
        <ele>141.84</ele>
        <time>2017-03-19T12:32:46Z</time>
      </trkpt>
      <trkpt lat="44.17175" lon="4.23338">
        <ele>137.89</ele>
        <time>2017-03-19T12:33:00Z</time>
      </trkpt>
      <trkpt lat="44.17192" lon="4.23342">
        <ele>140.65</ele>
        <time>2017-03-19T12:33:35Z</time>
      </trkpt>
      <trkpt lat="44.17211" lon="4.23345">
        <ele>136.93</ele>
        <time>2017-03-19T12:33:46Z</time>
      </trkpt>
      <trkpt lat="44.17229" lon="4.23348">
        <ele>139.83</ele>
        <time>2017-03-19T12:34:04Z</time>
      </trkpt>
      <trkpt lat="44.17248" lon="4.2335">
        <ele>136.88</ele>
        <time>2017-03-19T12:34:21Z</time>
      </trkpt>
      <trkpt lat="44.17267" lon="4.23353">
        <ele>132.36</ele>
        <time>2017-03-19T12:34:40Z</time>
      </trkpt>
      <trkpt lat="44.17284" lon="4.23363">
        <ele>131.63</ele>
        <time>2017-03-19T12:35:02Z</time>
      </trkpt>
      <trkpt lat="44.17302" lon="4.23368">
        <ele>130.34</ele>
        <time>2017-03-19T12:35:20Z</time>
      </trkpt>
      <trkpt lat="44.1732" lon="4.23368">
        <ele>137.54</ele>
        <time>2017-03-19T12:35:33Z</time>
      </trkpt>
      <trkpt lat="44.17339" lon="4.23366">
        <ele>137.46</ele>
        <time>2017-03-19T12:35:49Z</time>
      </trkpt>
      <trkpt lat="44.17357" lon="4.23375">
        <ele>135.61</ele>
        <time>2017-03-19T12:36:07Z</time>
      </trkpt>
      <trkpt lat="44.17374" lon="4.23382">
        <ele>131.48</ele>
        <time>2017-03-19T12:36:19Z</time>
      </trkpt>
      <trkpt lat="44.17392" lon="4.23388">
        <ele>125.85</ele>
        <time>2017-03-19T12:36:45Z</time>
      </trkpt>
      <trkpt lat="44.17411" lon="4.23391">
        <ele>130.37</ele>
        <time>2017-03-19T12:37:00Z</time>
      </trkpt>
      <trkpt lat="44.17429" lon="4.23392">
        <ele>132.64</ele>
        <time>2017-03-19T12:37:12Z</time>
      </trkpt>
      <trkpt lat="44.17447" lon="4.23386">
        <ele>129.63</ele>
        <time>2017-03-19T12:37:25Z</time>
      </trkpt>
      <trkpt lat="44.17466" lon="4.23389">
        <ele>129.76</ele>
        <time>2017-03-19T12:37:41Z</time>
      </trkpt>
      <trkpt lat="44.17483" lon="4.23393">
        <ele>136.19</ele>
        <time>2017-03-19T12:38:10Z</time>
      </trkpt>
      <trkpt lat="44.17502" lon="4.23396">
        <ele>127.42</ele>
        <time>2017-03-19T12:38:50Z</time>
      </trkpt>
      <trkpt lat="44.1752" lon="4.23402">
        <ele>130.24</ele>
        <time>2017-03-19T12:39:02Z</time>
      </trkpt>
      <trkpt lat="44.17539" lon="4.23406">
        <ele>132.66</ele>
        <time>2017-03-19T12:39:22Z</time>
      </trkpt>
      <trkpt lat="44.17556" lon="4.23413">
        <ele>130.96</ele>
        <time>2017-03-19T12:39:41Z</time>
      </trkpt>
      <trkpt lat="44.17575" lon="4.23417">
        <ele>131.64</ele>
        <time>2017-03-19T12:40:02Z</time>
      </trkpt>
      <trkpt lat="44.17591" lon="4.2343">
        <ele>128.03</ele>
        <time>2017-03-19T12:40:11Z</time>
      </trkpt>
      <trkpt lat="44.17609" lon="4.23431">
        <ele>137.61</ele>
        <time>2017-03-19T12:40:26Z</time>
      </trkpt>
      <trkpt lat="44.17628" lon="4.23435">
        <ele>140.63</ele>
        <time>2017-03-19T12:40:39Z</time>
      </trkpt>
      <trkpt lat="44.17646" lon="4.23442">
        <ele>146.12</ele>
        <time>2017-03-19T12:40:55Z</time>
      </trkpt>
      <trkpt lat="44.17652" lon="4.23418">
        <ele>139.33</ele>
        <time>2017-03-19T12:42:32Z</time>
      </trkpt>
      <trkpt lat="44.17657" lon="4.23394">
        <ele>140.72</ele>
        <time>2017-03-19T12:42:50Z</time>
      </trkpt>
      <trkpt lat="44.17665" lon="4.2337">
        <ele>138.85</ele>
        <time>2017-03-19T12:43:10Z</time>
      </trkpt>
      <trkpt lat="44.17672" lon="4.23345">
        <ele>134.72</ele>
        <time>2017-03-19T12:43:24Z</time>
      </trkpt>
      <trkpt lat="44.17674" lon="4.23319">
        <ele>127.94</ele>
        <time>2017-03-19T12:43:44Z</time>
      </trkpt>
      <trkpt lat="44.17681" lon="4.23295">
        <ele>131.24</ele>
        <time>2017-03-19T12:43:58Z</time>
      </trkpt>
      <trkpt lat="44.17686" lon="4.2327">
        <ele>132.33</ele>
        <time>2017-03-19T12:44:16Z</time>
      </trkpt>
      <trkpt lat="44.17697" lon="4.23248">
        <ele>132.56</ele>
        <time>2017-03-19T12:44:31Z</time>
      </trkpt>
      <trkpt lat="44.17714" lon="4.23236">
        <ele>132.48</ele>
        <time>2017-03-19T12:44:56Z</time>
      </trkpt>
      <trkpt lat="44.17723" lon="4.23214">
        <ele>133.56</ele>
        <time>2017-03-19T12:45:20Z</time>
      </trkpt>
      <trkpt lat="44.17731" lon="4.23188">
        <ele>128.72</ele>
        <time>2017-03-19T12:45:39Z</time>
      </trkpt>
      <trkpt lat="44.17744" lon="4.23169">
        <ele>129.93</ele>
        <time>2017-03-19T12:45:52Z</time>
      </trkpt>
      <trkpt lat="44.17762" lon="4.23158">
        <ele>126.06</ele>
        <time>2017-03-19T12:46:07Z</time>
      </trkpt>
      <trkpt lat="44.17779" lon="4.23147">
        <ele>127.19</ele>
        <time>2017-03-19T12:46:24Z</time>
      </trkpt>
      <trkpt lat="44.17797" lon="4.23151">
        <ele>129.63</ele>
        <time>2017-03-19T12:46:36Z</time>
      </trkpt>
      <trkpt lat="44.17815" lon="4.23161">
        <ele>130.63</ele>
        <time>2017-03-19T12:47:10Z</time>
      </trkpt>
      <trkpt lat="44.17833" lon="4.23165">
        <ele>128.72</ele>
        <time>2017-03-19T12:47:27Z</time>
      </trkpt>
      <trkpt lat="44.17852" lon="4.2317">
        <ele>131.23</ele>
        <time>2017-03-19T12:47:41Z</time>
      </trkpt>
      <trkpt lat="44.1787" lon="4.23173">
        <ele>129.36</ele>
        <time>2017-03-19T12:48:19Z</time>
      </trkpt>
      <trkpt lat="44.17889" lon="4.23172">
        <ele>131.55</ele>
        <time>2017-03-19T12:48:36Z</time>
      </trkpt>
      <trkpt lat="44.17907" lon="4.23174">
        <ele>129.39</ele>
        <time>2017-03-19T12:48:57Z</time>
      </trkpt>
      <trkpt lat="44.17926" lon="4.23178">
        <ele>128.72</ele>
        <time>2017-03-19T12:49:12Z</time>
      </trkpt>
      <trkpt lat="44.17944" lon="4.23183">
        <ele>130.43</ele>
        <time>2017-03-19T12:49:29Z</time>
      </trkpt>
      <trkpt lat="44.17963" lon="4.23182">
        <ele>130.31</ele>
        <time>2017-03-19T12:49:44Z</time>
      </trkpt>
      <trkpt lat="44.1798" lon="4.23191">
        <ele>127.81</ele>
        <time>2017-03-19T12:50:07Z</time>
      </trkpt>
      <trkpt lat="44.17998" lon="4.23196">
        <ele>131.63</ele>
        <time>2017-03-19T12:50:20Z</time>
      </trkpt>
      <trkpt lat="44.18015" lon="4.23203">
        <ele>137.08</ele>
        <time>2017-03-19T12:50:36Z</time>
      </trkpt>
      <trkpt lat="44.18033" lon="4.2321">
        <ele>133.54</ele>
        <time>2017-03-19T12:50:52Z</time>
      </trkpt>
      <trkpt lat="44.18052" lon="4.23215">
        <ele>134.77</ele>
        <time>2017-03-19T12:51:06Z</time>
      </trkpt>
      <trkpt lat="44.18069" lon="4.23225">
        <ele>132.81</ele>
        <time>2017-03-19T12:51:23Z</time>
      </trkpt>
      <trkpt lat="44.18085" lon="4.23214">
        <ele>131.66</ele>
        <time>2017-03-19T12:53:08Z</time>
      </trkpt>
      <trkpt lat="44.18083" lon="4.23189">
        <ele>131.63</ele>
        <time>2017-03-19T12:53:28Z</time>
      </trkpt>
      <trkpt lat="44.18088" lon="4.23164">
        <ele>131.71</ele>
        <time>2017-03-19T12:53:44Z</time>
      </trkpt>
      <trkpt lat="44.18093" lon="4.2314">
        <ele>133.57</ele>
        <time>2017-03-19T12:54:04Z</time>
      </trkpt>
      <trkpt lat="44.18101" lon="4.23116">
        <ele>133.62</ele>
        <time>2017-03-19T12:54:34Z</time>
      </trkpt>
      <trkpt lat="44.18108" lon="4.23092">
        <ele>134.46</ele>
        <time>2017-03-19T12:54:58Z</time>
      </trkpt>
      <trkpt lat="44.18114" lon="4.23067">
        <ele>131.82</ele>
        <time>2017-03-19T12:55:16Z</time>
      </trkpt>
      <trkpt lat="44.18121" lon="4.23043">
        <ele>130.33</ele>
        <time>2017-03-19T12:55:27Z</time>
      </trkpt>
      <trkpt lat="44.18124" lon="4.23018">
        <ele>132.4</ele>
        <time>2017-03-19T12:55:47Z</time>
      </trkpt>
      <trkpt lat="44.18141" lon="4.23006">
        <ele>128.36</ele>
        <time>2017-03-19T12:56:14Z</time>
      </trkpt>
      <trkpt lat="44.1816" lon="4.23003">
        <ele>130.62</ele>
        <time>2017-03-19T12:56:32Z</time>
      </trkpt>
      <trkpt lat="44.18178" lon="4.23">
        <ele>133.92</ele>
        <time>2017-03-19T12:57:23Z</time>
      </trkpt>
      <trkpt lat="44.18192" lon="4.22985">
        <ele>137.65</ele>
        <time>2017-03-19T12:57:42Z</time>
      </trkpt>
      <trkpt lat="44.18198" lon="4.22961">
        <ele>132.59</ele>
        <time>2017-03-19T12:57:58Z</time>
      </trkpt>
      <trkpt lat="44.18212" lon="4.22946">
        <ele>128.93</ele>
        <time>2017-03-19T12:58:26Z</time>
      </trkpt>
      <trkpt lat="44.18218" lon="4.2292">
        <ele>129.72</ele>
        <time>2017-03-19T12:58:46Z</time>
      </trkpt>
      <trkpt lat="44.1823" lon="4.22901">
        <ele>120.97</ele>
        <time>2017-03-19T12:59:07Z</time>
      </trkpt>
      <trkpt lat="44.18248" lon="4.22895">
        <ele>128.3</ele>
        <time>2017-03-19T12:59:28Z</time>
      </trkpt>
      <trkpt lat="44.18267" lon="4.2289">
        <ele>125.53</ele>
        <time>2017-03-19T12:59:42Z</time>
      </trkpt>
      <trkpt lat="44.18285" lon="4.22888">
        <ele>123.89</ele>
        <time>2017-03-19T13:00:00Z</time>
      </trkpt>
      <trkpt lat="44.18304" lon="4.22882">
        <ele>122.59</ele>
        <time>2017-03-19T13:00:16Z</time>
      </trkpt>
      <trkpt lat="44.18322" lon="4.22883">
        <ele>124.61</ele>
        <time>2017-03-19T13:00:29Z</time>
      </trkpt>
      <trkpt lat="44.1834" lon="4.22891">
        <ele>123.93</ele>
        <time>2017-03-19T13:00:48Z</time>
      </trkpt>
      <trkpt lat="44.18359" lon="4.22887">
        <ele>120.82</ele>
        <time>2017-03-19T13:01:07Z</time>
      </trkpt>
      <trkpt lat="44.18376" lon="4.22875">
        <ele>122.31</ele>
        <time>2017-03-19T13:01:22Z</time>
      </trkpt>
      <trkpt lat="44.18393" lon="4.22884">
        <ele>122.72</ele>
        <time>2017-03-19T13:01:37Z</time>
      </trkpt>
      <trkpt lat="44.18406" lon="4.22903">
        <ele>121.9</ele>
        <time>2017-03-19T13:01:56Z</time>
      </trkpt>
      <trkpt lat="44.18415" lon="4.22924">
        <ele>122.64</ele>
        <time>2017-03-19T13:02:09Z</time>
      </trkpt>
      <trkpt lat="44.18416" lon="4.22951">
        <ele>124.5</ele>
        <time>2017-03-19T13:02:26Z</time>
      </trkpt>
      <trkpt lat="44.1842" lon="4.22976">
        <ele>123.33</ele>
        <time>2017-03-19T13:02:43Z</time>
      </trkpt>
      <trkpt lat="44.1843" lon="4.22999">
        <ele>118.67</ele>
        <time>2017-03-19T13:02:59Z</time>
      </trkpt>
      <trkpt lat="44.18444" lon="4.23016">
        <ele>122.95</ele>
        <time>2017-03-19T13:03:47Z</time>
      </trkpt>
      <trkpt lat="44.1846" lon="4.23032">
        <ele>134.38</ele>
        <time>2017-03-19T13:04:00Z</time>
      </trkpt>
      <trkpt lat="44.18478" lon="4.23039">
        <ele>135.24</ele>
        <time>2017-03-19T13:04:20Z</time>
      </trkpt>
      <trkpt lat="44.18495" lon="4.2305">
        <ele>125.41</ele>
        <time>2017-03-19T13:04:37Z</time>
      </trkpt>
      <trkpt lat="44.18508" lon="4.23069">
        <ele>125.55</ele>
        <time>2017-03-19T13:04:50Z</time>
      </trkpt>
      <trkpt lat="44.18517" lon="4.23092">
        <ele>123.86</ele>
        <time>2017-03-19T13:05:12Z</time>
      </trkpt>
      <trkpt lat="44.18526" lon="4.23114">
        <ele>120.52</ele>
        <time>2017-03-19T13:05:36Z</time>
      </trkpt>
      <trkpt lat="44.1852" lon="4.23138">
        <ele>127.99</ele>
        <time>2017-03-19T13:05:51Z</time>
      </trkpt>
      <trkpt lat="44.18513" lon="4.23162">
        <ele>129.23</ele>
        <time>2017-03-19T13:06:08Z</time>
      </trkpt>
      <trkpt lat="44.18506" lon="4.23186">
        <ele>129.63</ele>
        <time>2017-03-19T13:06:24Z</time>
      </trkpt>
      <trkpt lat="44.18501" lon="4.23213">
        <ele>131.52</ele>
        <time>2017-03-19T13:06:50Z</time>
      </trkpt>
      <trkpt lat="44.18493" lon="4.23236">
        <ele>129.63</ele>
        <time>2017-03-19T13:07:08Z</time>
      </trkpt>
      <trkpt lat="44.18488" lon="4.23262">
        <ele>131.36</ele>
        <time>2017-03-19T13:07:27Z</time>
      </trkpt>
      <trkpt lat="44.1848" lon="4.23288">
        <ele>130.75</ele>
        <time>2017-03-19T13:07:51Z</time>
      </trkpt>
    </trkseg>
  </trk>
</gpx>